Time;durP1;ratioP1;P1;durP2;ratioP2;P2;SDS_P1;SDS_P2;PMS_P1;PMS_P2;Temp;Humidity;BMP_temperature;BMP_pressure;BME280_temperature;BME280_humidity;BME280_pressure;Samples;Min_cycle;Max_cycle;Signal;HPM_P1;HPM_P2
2024/04/01 00:00:34;;;;;;;41.83;23.48;;;10.40;99.90;;;;;;5026079;28;20057;-67
2024/04/01 00:02:59;;;;;;;43.97;25.45;;;10.50;99.90;;;;;;5019909;28;20069;-67
2024/04/01 00:05:25;;;;;;;42.22;27.45;;;10.50;99.90;;;;;;5015944;28;20053;-66
2024/04/01 00:07:51;;;;;;;46.80;25.88;;;10.40;99.90;;;;;;5019864;28;20529;-66
2024/04/01 00:10:21;;;;;;;44.47;25.52;;;10.50;99.90;;;;;;5020610;28;20579;-66
2024/04/01 00:12:47;;;;;;;43.20;23.27;;;10.40;99.90;;;;;;5021288;28;20053;-67
2024/04/01 00:15:13;;;;;;;38.50;23.63;;;10.40;99.90;;;;;;5025685;28;20056;-67
2024/04/01 00:17:39;;;;;;;36.58;22.50;;;10.30;99.90;;;;;;5026953;28;20558;-66
2024/04/01 00:20:06;;;;;;;36.20;22.42;;;10.30;99.90;;;;;;5021650;28;20056;-67
2024/04/01 00:22:32;;;;;;;37.05;21.73;;;10.30;99.90;;;;;;5016749;28;20057;-66
2024/04/01 00:24:58;;;;;;;36.50;21.58;;;10.30;99.90;;;;;;5010423;28;20130;-66
2024/04/01 00:27:24;;;;;;;34.70;22.48;;;10.20;99.90;;;;;;5028147;28;20060;-67
2024/04/01 00:29:50;;;;;;;29.65;19.33;;;10.20;99.90;;;;;;5017633;28;20088;-68
2024/04/01 00:32:15;;;;;;;34.00;19.45;;;10.20;99.90;;;;;;5009687;28;20057;-67
2024/04/01 00:34:41;;;;;;;24.38;11.88;;;10.20;99.90;;;;;;5026740;28;20098;-65
2024/04/01 00:37:07;;;;;;;17.63;10.30;;;10.10;99.90;;;;;;5018023;28;20087;-68
2024/04/01 00:39:33;;;;;;;15.52;8.43;;;10.10;99.90;;;;;;5021224;28;20106;-68
2024/04/01 00:41:59;;;;;;;11.32;6.28;;;10.10;99.90;;;;;;5010322;28;20461;-66
2024/04/01 00:44:25;;;;;;;8.07;5.20;;;10.10;99.90;;;;;;5021823;28;20041;-67
2024/04/01 00:46:51;;;;;;;14.52;5.13;;;10.10;99.90;;;;;;5010308;28;20141;-67
2024/04/01 00:49:21;;;;;;;11.20;4.80;;;10.10;99.90;;;;;;5023451;28;20118;-67
2024/04/01 00:51:47;;;;;;;5.70;3.10;;;10.10;99.90;;;;;;5026783;28;20499;-66
2024/04/01 00:54:13;;;;;;;3.05;2.20;;;10.10;99.90;;;;;;5017728;28;20088;-66
2024/04/01 00:56:40;;;;;;;3.85;1.33;;;10.10;99.90;;;;;;5006135;28;20094;-66
2024/04/01 00:59:05;;;;;;;6.35;3.40;;;10.00;99.90;;;;;;5022987;28;20056;-66
2024/04/01 01:01:32;;;;;;;3.90;1.73;;;10.00;99.90;;;;;;5026117;28;20387;-67
2024/04/01 01:03:59;;;;;;;3.05;1.67;;;10.00;99.90;;;;;;4991234;28;20490;-67
2024/04/01 01:06:25;;;;;;;3.78;1.98;;;10.00;99.90;;;;;;5008981;28;20041;-67
2024/04/01 01:08:50;;;;;;;2.40;1.67;;;9.90;99.90;;;;;;5012765;28;20103;-67
2024/04/01 01:11:17;;;;;;;2.50;1.60;;;9.90;99.90;;;;;;5024646;28;20079;-67
2024/04/01 01:13:42;;;;;;;3.10;1.92;;;9.80;99.90;;;;;;5012865;28;20068;-67
2024/04/01 01:16:08;;;;;;;5.57;2.60;;;9.70;99.90;;;;;;5024089;28;20439;-66
2024/04/01 01:18:34;;;;;;;5.65;2.30;;;9.70;99.90;;;;;;5014798;28;20052;-67
2024/04/01 01:21:00;;;;;;;5.57;2.60;;;9.70;99.90;;;;;;5014968;28;20055;-66
2024/04/01 01:23:26;;;;;;;3.90;2.50;;;9.70;99.90;;;;;;5006841;28;20048;-67
2024/04/01 01:25:54;;;;;;;5.60;2.47;;;9.70;99.90;;;;;;5026348;28;20159;-70
2024/04/01 01:28:20;;;;;;;5.82;3.22;;;9.70;99.90;;;;;;5001829;28;20412;-66
2024/04/01 01:30:46;;;;;;;8.52;3.28;;;9.70;99.90;;;;;;5010474;28;20053;-66
2024/04/01 01:33:12;;;;;;;5.88;3.85;;;9.70;99.90;;;;;;5015492;28;21462;-68
2024/04/01 01:35:38;;;;;;;9.05;3.60;;;9.70;99.90;;;;;;5014079;28;20053;-66
2024/04/01 01:38:04;;;;;;;7.13;3.92;;;9.70;99.90;;;;;;4974794;28;20050;-68
2024/04/01 01:40:29;;;;;;;7.00;3.42;;;9.70;99.90;;;;;;5009200;28;20053;-67
2024/04/01 01:42:55;;;;;;;7.95;3.17;;;9.60;99.90;;;;;;5005653;28;20696;-66
2024/04/01 01:45:21;;;;;;;6.57;3.75;;;9.60;99.90;;;;;;5026743;28;20663;-66
2024/04/01 01:47:47;;;;;;;7.30;4.45;;;9.60;99.90;;;;;;5014125;28;20333;-66
2024/04/01 01:50:13;;;;;;;9.85;5.00;;;9.60;99.90;;;;;;5027941;28;20496;-67
2024/04/01 01:52:39;;;;;;;4.32;3.03;;;9.70;99.90;;;;;;5023231;28;20152;-67
2024/04/01 01:55:05;;;;;;;4.55;2.45;;;9.70;99.90;;;;;;5029059;28;20064;-68
2024/04/01 01:57:31;;;;;;;5.90;2.50;;;9.60;99.90;;;;;;5022836;28;20057;-67
2024/04/01 01:59:57;;;;;;;3.97;2.17;;;9.60;99.90;;;;;;5026717;28;20049;-67
2024/04/01 02:02:23;;;;;;;6.13;2.38;;;9.50;99.90;;;;;;5024884;28;20107;-67
2024/04/01 02:04:49;;;;;;;2.35;1.70;;;9.50;99.90;;;;;;5026951;28;21347;-67
2024/04/01 02:07:14;;;;;;;2.75;1.40;;;9.50;99.90;;;;;;5020975;28;20131;-66
2024/04/01 02:09:40;;;;;;;3.83;1.65;;;9.40;99.90;;;;;;4997243;28;20063;-66
2024/04/01 02:12:09;;;;;;;3.10;1.40;;;9.40;99.90;;;;;;5022341;28;20052;-68
2024/04/01 02:14:38;;;;;;;1.80;1.40;;;9.40;99.90;;;;;;5019853;28;20612;-68
2024/04/01 02:17:05;;;;;;;2.00;1.17;;;9.30;99.90;;;;;;5014473;28;20042;-66
2024/04/01 02:19:35;;;;;;;2.78;1.33;;;9.20;99.90;;;;;;5027630;28;20529;-66
2024/04/01 02:22:00;;;;;;;1.73;1.13;;;9.20;99.90;;;;;;5023967;28;20423;-66
2024/04/01 02:24:26;;;;;;;2.08;0.95;;;9.20;99.90;;;;;;5014411;28;20041;-66
2024/04/01 02:26:53;;;;;;;1.40;1.00;;;9.20;99.90;;;;;;5024602;28;20056;-67
2024/04/01 02:29:19;;;;;;;2.70;0.90;;;9.10;99.90;;;;;;5024411;28;20068;-66
2024/04/01 02:31:44;;;;;;;6.53;1.90;;;9.10;99.90;;;;;;5026294;28;20187;-67
2024/04/01 02:34:10;;;;;;;1.65;1.00;;;9.10;99.90;;;;;;5023806;28;20055;-67
2024/04/01 02:36:36;;;;;;;1.27;0.90;;;9.10;99.90;;;;;;5025270;28;20065;-67
2024/04/01 02:39:03;;;;;;;1.23;0.60;;;9.10;99.90;;;;;;5024243;28;20127;-67
2024/04/01 02:41:29;;;;;;;4.97;1.20;;;9.00;99.90;;;;;;5024158;28;20515;-67
2024/04/01 02:43:55;;;;;;;1.27;0.80;;;9.00;99.90;;;;;;5019793;28;20053;-66
2024/04/01 02:46:20;;;;;;;2.08;1.15;;;9.00;99.90;;;;;;5010924;28;20393;-67
2024/04/01 02:48:46;;;;;;;3.88;0.70;;;9.00;99.90;;;;;;5009502;28;20041;-66
2024/04/01 02:51:12;;;;;;;2.25;0.90;;;9.00;99.90;;;;;;5026909;28;20053;-67
2024/04/01 02:53:38;;;;;;;0.70;0.40;;;9.00;99.90;;;;;;5008373;28;20053;-67
2024/04/01 02:56:06;;;;;;;1.77;0.80;;;9.00;99.90;;;;;;5024628;28;20051;-67
2024/04/01 02:58:32;;;;;;;2.80;0.63;;;9.10;99.90;;;;;;5026391;28;20053;-67
2024/04/01 03:01:07;;;;;;;1.88;0.60;;;9.10;99.90;;;;;;5028381;28;20063;-66
2024/04/01 03:03:33;;;;;;;0.88;0.50;;;9.10;99.90;;;;;;5026463;28;20500;-67
2024/04/01 03:05:59;;;;;;;0.88;0.70;;;9.00;99.90;;;;;;5015438;28;20049;-66
2024/04/01 03:08:25;;;;;;;1.13;0.50;;;9.00;99.90;;;;;;5010347;28;20059;-68
2024/04/01 03:11:00;;;;;;;2.88;0.50;;;9.00;99.90;;;;;;5022726;28;20091;-68
2024/04/01 03:13:26;;;;;;;0.68;0.50;;;9.00;99.90;;;;;;5023750;28;20523;-68
2024/04/01 03:15:53;;;;;;;1.55;0.52;;;9.00;99.90;;;;;;5026672;28;20049;-68
2024/04/01 03:18:20;;;;;;;1.48;0.50;;;8.90;99.90;;;;;;5029048;28;20045;-67
2024/04/01 03:20:46;;;;;;;0.47;0.40;;;8.80;99.90;;;;;;5006556;28;20088;-67
2024/04/01 03:23:13;;;;;;;2.67;0.40;;;8.80;99.90;;;;;;5024906;28;20049;-68
2024/04/01 03:25:39;;;;;;;0.80;0.43;;;8.80;99.90;;;;;;5017069;28;20056;-65
2024/04/01 03:28:05;;;;;;;0.55;0.55;;;8.80;99.90;;;;;;5030213;28;20051;-65
2024/04/01 03:30:31;;;;;;;0.55;0.30;;;8.80;99.90;;;;;;5026830;28;20087;-66
2024/04/01 03:32:56;;;;;;;2.30;0.43;;;8.80;99.90;;;;;;5009684;28;20213;-66
2024/04/01 03:35:22;;;;;;;1.35;0.40;;;8.80;99.90;;;;;;5019685;28;20495;-66
2024/04/01 03:37:48;;;;;;;4.65;0.77;;;8.80;99.90;;;;;;5010087;28;20265;-66
2024/04/01 03:40:14;;;;;;;0.40;0.40;;;8.80;99.90;;;;;;5026600;28;20412;-67
2024/04/01 03:42:40;;;;;;;3.80;2.03;;;8.70;99.90;;;;;;5044114;28;20055;-66
2024/04/01 03:45:06;;;;;;;0.40;0.40;;;8.60;99.90;;;;;;5026871;28;20196;-67
2024/04/01 03:47:33;;;;;;;0.77;0.63;;;8.70;99.90;;;;;;5029776;28;20053;-67
2024/04/01 03:49:58;;;;;;;1.30;0.50;;;8.60;99.90;;;;;;5028074;28;20060;-67
2024/04/01 03:52:25;;;;;;;1.33;0.60;;;8.70;99.90;;;;;;5027518;28;20518;-68
2024/04/01 03:54:50;;;;;;;1.10;0.50;;;8.70;99.90;;;;;;5013424;28;20052;-67
2024/04/01 03:57:16;;;;;;;0.75;0.38;;;8.70;99.90;;;;;;5027838;28;20041;-66
2024/04/01 03:59:42;;;;;;;0.57;0.50;;;8.80;99.90;;;;;;5029005;28;20041;-66
2024/04/01 04:02:08;;;;;;;0.65;0.30;;;8.80;99.90;;;;;;5024585;28;20056;-67
2024/04/01 04:04:34;;;;;;;0.40;0.40;;;8.90;99.90;;;;;;5029931;28;20106;-67
2024/04/01 04:07:01;;;;;;;0.30;0.30;;;8.90;99.90;;;;;;4995473;28;20408;-68
2024/04/01 04:09:27;;;;;;;0.70;0.55;;;9.00;99.90;;;;;;5008944;28;20045;-67
2024/04/01 04:11:53;;;;;;;1.17;0.45;;;9.00;99.90;;;;;;5025626;28;20397;-67
2024/04/01 04:14:19;;;;;;;0.93;0.93;;;9.00;99.90;;;;;;5009709;28;20060;-67
2024/04/01 04:16:45;;;;;;;0.98;0.52;;;9.00;99.90;;;;;;5017206;28;20060;-66
2024/04/01 04:19:11;;;;;;;0.60;0.60;;;9.00;99.90;;;;;;5029495;28;20534;-67
2024/04/01 04:21:37;;;;;;;0.80;0.80;;;9.00;99.90;;;;;;5028456;28;20056;-66
2024/04/01 04:24:03;;;;;;;2.70;0.60;;;9.00;99.90;;;;;;5013552;28;20484;-68
2024/04/01 04:26:29;;;;;;;0.85;0.70;;;9.00;99.90;;;;;;5011502;28;20060;-66
2024/04/01 04:28:55;;;;;;;2.28;0.85;;;9.00;99.90;;;;;;5028997;28;20056;-68
2024/04/01 04:31:21;;;;;;;1.38;0.73;;;9.00;99.90;;;;;;5025139;28;20053;-66
2024/04/01 04:33:47;;;;;;;1.15;0.60;;;8.90;99.90;;;;;;5020288;28;20495;-66
2024/04/01 04:36:13;;;;;;;1.13;0.82;;;8.90;99.90;;;;;;5027980;28;20064;-66
2024/04/01 04:38:39;;;;;;;4.45;0.90;;;8.90;99.90;;;;;;5021099;28;20054;-66
2024/04/01 04:41:05;;;;;;;1.95;0.88;;;8.90;99.90;;;;;;5023682;28;20069;-66
2024/04/01 04:43:31;;;;;;;2.08;0.77;;;8.90;99.90;;;;;;5022160;28;20297;-69
2024/04/01 04:45:59;;;;;;;1.67;0.80;;;8.80;99.90;;;;;;5024130;28;20074;-66
2024/04/01 04:48:26;;;;;;;3.08;0.52;;;8.70;99.90;;;;;;5012595;28;20049;-66
2024/04/01 04:50:52;;;;;;;3.42;0.90;;;8.70;99.90;;;;;;5026587;28;20057;-67
2024/04/01 04:53:18;;;;;;;1.60;0.60;;;8.70;99.90;;;;;;5028300;28;20069;-67
2024/04/01 04:55:44;;;;;;;2.08;0.65;;;8.70;99.90;;;;;;5028258;28;20053;-67
2024/04/01 04:58:10;;;;;;;3.65;1.02;;;8.70;99.90;;;;;;5012400;28;20114;-67
2024/04/01 05:00:36;;;;;;;2.78;0.80;;;8.70;99.90;;;;;;5028175;28;20071;-67
2024/04/01 05:03:05;;;;;;;2.00;0.60;;;8.60;99.90;;;;;;5016093;28;20045;-67
2024/04/01 05:05:32;;;;;;;3.97;0.50;;;8.60;99.90;;;;;;5020302;28;20045;-67
2024/04/01 05:07:57;;;;;;;5.05;0.65;;;8.60;99.90;;;;;;5019466;28;20065;-66
2024/04/01 05:10:23;;;;;;;2.03;0.52;;;8.50;99.90;;;;;;5040422;28;20190;-67
2024/04/01 05:12:49;;;;;;;3.72;0.80;;;8.50;99.90;;;;;;5026510;28;20057;-68
2024/04/01 05:15:15;;;;;;;4.13;0.63;;;8.50;99.90;;;;;;5044952;28;20381;-66
2024/04/01 05:17:41;;;;;;;3.42;0.70;;;8.40;99.90;;;;;;5026912;28;20462;-66
2024/04/01 05:20:13;;;;;;;1.73;0.68;;;8.40;99.90;;;;;;5027579;28;20123;-65
2024/04/01 05:22:39;;;;;;;1.00;0.50;;;8.40;99.90;;;;;;5027342;28;20053;-67
2024/04/01 05:25:05;;;;;;;3.92;0.60;;;8.40;99.90;;;;;;5020230;28;20045;-66
2024/04/01 05:27:31;;;;;;;6.85;2.88;;;8.30;99.90;;;;;;5022792;28;20458;-67
2024/04/01 05:30:03;;;;;;;2.88;0.57;;;8.30;99.90;;;;;;5019510;28;20110;-67
2024/04/01 05:32:32;;;;;;;0.93;0.50;;;8.30;99.90;;;;;;5024006;28;20626;-68
2024/04/01 05:34:58;;;;;;;2.03;0.60;;;8.20;99.90;;;;;;5015882;28;20041;-67
2024/04/01 05:37:24;;;;;;;5.22;2.10;;;8.30;99.90;;;;;;5025436;28;20041;-66
2024/04/01 05:39:53;;;;;;;3.85;0.63;;;8.20;99.90;;;;;;5025502;28;20061;-67
2024/04/01 05:42:19;;;;;;;4.10;0.63;;;8.20;99.90;;;;;;5027364;28;20068;-67
2024/04/01 05:44:45;;;;;;;0.75;0.45;;;8.10;99.90;;;;;;5026789;28;20052;-67
2024/04/01 05:47:11;;;;;;;5.82;0.80;;;8.20;99.90;;;;;;5016150;28;20065;-67
2024/04/01 05:49:36;;;;;;;4.57;0.63;;;8.20;99.90;;;;;;5006544;28;20080;-66
2024/04/01 05:52:03;;;;;;;3.92;0.60;;;8.20;99.90;;;;;;5021293;28;20041;-66
2024/04/01 05:54:29;;;;;;;6.45;0.82;;;8.20;99.90;;;;;;5026241;28;20064;-66
2024/04/01 05:56:56;;;;;;;4.13;1.08;;;8.20;99.90;;;;;;5016305;28;20060;-67
2024/04/01 05:59:22;;;;;;;3.50;0.85;;;8.10;99.90;;;;;;5022579;28;20791;-66
2024/04/01 06:01:48;;;;;;;2.03;0.50;;;8.10;99.90;;;;;;5008319;28;20049;-67
2024/04/01 06:04:14;;;;;;;1.92;0.57;;;8.10;99.90;;;;;;5020553;28;21213;-67
2024/04/01 06:06:41;;;;;;;3.17;0.60;;;8.10;99.90;;;;;;5028029;28;20041;-67
2024/04/01 06:09:07;;;;;;;8.45;1.15;;;8.10;99.90;;;;;;5026398;28;20053;-67
2024/04/01 06:11:32;;;;;;;6.25;0.75;;;8.00;99.90;;;;;;5023098;28;20051;-68
2024/04/01 06:13:58;;;;;;;11.23;0.98;;;8.00;99.90;;;;;;5022700;28;20190;-68
2024/04/01 06:16:24;;;;;;;3.83;0.88;;;8.00;99.90;;;;;;5001881;28;20064;-66
2024/04/01 06:18:50;;;;;;;6.75;0.93;;;8.00;99.90;;;;;;5026699;28;20044;-66
2024/04/01 06:21:16;;;;;;;5.20;0.60;;;8.00;99.90;;;;;;5022967;28;20127;-66
2024/04/01 06:23:41;;;;;;;2.78;0.77;;;8.10;99.90;;;;;;5007148;28;20662;-66
2024/04/01 06:26:07;;;;;;;1.55;0.60;;;8.10;99.90;;;;;;5021521;28;20064;-66
2024/04/01 06:28:33;;;;;;;3.00;0.50;;;8.20;99.90;;;;;;5026508;28;20064;-66
2024/04/01 06:30:59;;;;;;;4.68;0.60;;;8.20;99.90;;;;;;5011191;28;20064;-67
2024/04/01 06:33:25;;;;;;;5.65;1.27;;;8.20;99.90;;;;;;5030509;28;20049;-67
2024/04/01 06:36:04;;;;;;;3.75;1.20;;;8.20;99.90;;;;;;5027044;28;20051;-66
2024/04/01 06:38:30;;;;;;;5.90;1.20;;;8.20;99.90;;;;;;5024899;28;20053;-66
2024/04/01 06:40:56;;;;;;;6.65;1.08;;;8.30;99.90;;;;;;5029368;28;20052;-66
2024/04/01 06:43:23;;;;;;;9.45;1.10;;;8.20;99.90;;;;;;5010692;28;20765;-66
2024/04/01 06:46:07;;;;;;;2.75;0.80;;;8.30;99.90;;;;;;5029061;28;20404;-66
2024/04/01 06:48:34;;;;;;;6.32;1.23;;;8.40;99.90;;;;;;5019505;28;20057;-66
2024/04/01 06:51:00;;;;;;;5.82;0.95;;;8.40;99.90;;;;;;5028573;28;20055;-67
2024/04/01 06:53:26;;;;;;;6.78;1.23;;;8.50;99.90;;;;;;5023906;28;20052;-66
2024/04/01 06:55:52;;;;;;;2.28;0.80;;;8.60;99.90;;;;;;5027501;28;20053;-66
2024/04/01 06:58:18;;;;;;;4.47;1.27;;;8.50;99.90;;;;;;5010890;28;20071;-67
2024/04/01 07:00:44;;;;;;;9.38;1.05;;;8.60;99.90;;;;;;5019232;28;20488;-67
2024/04/01 07:03:10;;;;;;;5.53;0.80;;;8.60;99.90;;;;;;5018451;28;20447;-67
2024/04/01 07:05:36;;;;;;;6.00;1.08;;;8.70;99.90;;;;;;5029154;28;20520;-67
2024/04/01 07:08:02;;;;;;;5.68;1.08;;;8.70;99.90;;;;;;5026092;28;20056;-67
2024/04/01 07:10:29;;;;;;;6.15;1.58;;;8.80;99.90;;;;;;5031643;28;20049;-67
2024/04/01 07:12:55;;;;;;;6.13;1.77;;;8.80;99.90;;;;;;5022781;28;20060;-66
2024/04/01 07:15:21;;;;;;;3.92;0.90;;;8.80;99.90;;;;;;5025308;28;20052;-67
2024/04/01 07:17:47;;;;;;;4.32;0.77;;;8.80;99.90;;;;;;5015569;28;20057;-67
2024/04/01 07:20:13;;;;;;;2.28;0.82;;;8.80;99.90;;;;;;5030187;28;20052;-67
2024/04/01 07:22:39;;;;;;;9.35;1.20;;;8.90;99.90;;;;;;5023066;28;20061;-67
2024/04/01 07:25:05;;;;;;;9.40;1.13;;;8.90;99.90;;;;;;4657942;28;10000012;-67
2024/04/01 07:27:34;;;;;;;5.55;0.90;;;8.90;99.90;;;;;;5006200;28;20061;-68
2024/04/01 07:30:04;;;;;;;9.98;2.00;;;9.00;99.90;;;;;;5019858;28;20057;-68
2024/04/01 07:32:30;;;;;;;7.57;1.58;;;9.10;99.90;;;;;;5025016;28;20419;-68
2024/04/01 07:34:57;;;;;;;4.55;1.13;;;9.10;99.90;;;;;;5027188;28;20090;-68
2024/04/01 07:37:23;;;;;;;5.88;1.02;;;9.20;99.90;;;;;;5024805;28;20067;-68
2024/04/01 07:39:49;;;;;;;4.47;1.10;;;9.20;99.90;;;;;;5019346;28;20045;-67
2024/04/01 07:42:15;;;;;;;2.17;0.82;;;9.30;99.90;;;;;;5028100;28;21004;-68
2024/04/01 07:44:41;;;;;;;5.20;1.35;;;9.40;99.90;;;;;;5028198;28;20045;-67
2024/04/01 07:47:08;;;;;;;6.57;1.98;;;9.40;99.90;;;;;;5029525;28;20113;-67
2024/04/01 07:49:34;;;;;;;5.70;1.20;;;9.50;99.90;;;;;;5027292;28;20048;-67
2024/04/01 07:52:00;;;;;;;5.90;0.82;;;9.50;99.90;;;;;;5029816;28;20055;-67
2024/04/01 07:54:28;;;;;;;5.28;0.95;;;9.60;99.90;;;;;;5021061;28;20052;-67
2024/04/01 07:57:01;;;;;;;3.67;1.00;;;9.60;99.90;;;;;;5021221;28;20044;-67
2024/04/01 07:59:30;;;;;;;4.30;0.85;;;9.60;99.90;;;;;;5025804;28;20124;-67
2024/04/01 08:01:56;;;;;;;7.80;0.90;;;9.70;99.90;;;;;;5013090;28;20049;-68
2024/04/01 08:04:23;;;;;;;4.28;0.82;;;9.70;99.90;;;;;;5027389;28;20053;-67
2024/04/01 08:06:49;;;;;;;8.57;1.00;;;9.70;99.90;;;;;;5024006;28;20061;-67
2024/04/01 08:09:15;;;;;;;3.95;1.95;;;9.80;99.90;;;;;;5022338;28;20472;-67
2024/04/01 08:11:41;;;;;;;2.58;1.23;;;9.90;99.90;;;;;;4994631;28;20108;-67
2024/04/01 08:14:07;;;;;;;3.90;1.15;;;9.90;99.90;;;;;;5026619;28;20543;-68
2024/04/01 08:16:33;;;;;;;10.27;1.08;;;10.00;99.90;;;;;;5021700;28;20490;-67
2024/04/01 08:18:59;;;;;;;2.50;0.88;;;10.10;99.90;;;;;;5025271;28;20106;-68
2024/04/01 08:21:25;;;;;;;6.57;0.82;;;10.20;99.90;;;;;;5027314;28;20052;-68
2024/04/01 08:23:51;;;;;;;3.28;0.98;;;10.30;99.90;;;;;;5025476;28;20056;-67
2024/04/01 08:26:17;;;;;;;4.90;1.23;;;10.30;99.90;;;;;;5018165;28;20056;-67
2024/04/01 08:28:43;;;;;;;6.18;1.30;;;10.40;99.90;;;;;;5027962;28;20056;-67
2024/04/01 08:31:09;;;;;;;4.55;0.63;;;10.40;99.90;;;;;;4983703;28;20147;-66
2024/04/01 08:33:35;;;;;;;12.88;4.05;;;10.40;99.90;;;;;;5022525;28;20543;-67
2024/04/01 08:36:00;;;;;;;7.45;1.10;;;10.30;99.90;;;;;;5022658;28;20459;-67
2024/04/01 08:38:26;;;;;;;1.40;0.68;;;10.30;99.90;;;;;;5023729;28;20610;-67
2024/04/01 08:40:55;;;;;;;3.95;0.85;;;10.30;99.90;;;;;;5022990;28;20414;-68
2024/04/01 08:43:37;;;;;;;3.22;0.95;;;10.40;99.90;;;;;;5027626;28;20053;-68
2024/04/01 08:46:03;;;;;;;7.72;1.13;;;10.50;99.90;;;;;;5017781;28;20053;-67
2024/04/01 08:48:30;;;;;;;3.80;0.90;;;10.60;99.90;;;;;;5025666;28;20096;-68
2024/04/01 08:50:59;;;;;;;6.45;1.35;;;10.60;99.90;;;;;;5024068;28;20049;-67
2024/04/01 08:53:43;;;;;;;5.30;1.13;;;10.70;99.90;;;;;;5023078;28;20045;-67
2024/04/01 08:56:09;;;;;;;5.55;1.27;;;10.70;99.90;;;;;;5036804;28;20068;-67
2024/04/01 08:58:35;;;;;;;3.47;0.50;;;10.80;99.90;;;;;;4997220;28;20053;-67
2024/04/01 09:01:00;;;;;;;3.58;0.95;;;10.90;99.90;;;;;;5000192;28;20068;-69
2024/04/01 09:03:26;;;;;;;2.03;0.77;;;10.90;99.90;;;;;;4671334;28;9999829;-68
2024/04/01 09:05:56;;;;;;;6.07;1.60;;;11.00;99.90;;;;;;5015766;28;20052;-68
2024/04/01 09:08:23;;;;;;;3.75;0.88;;;11.20;99.90;;;;;;4986097;28;20048;-68
2024/04/01 09:10:53;;;;;;;2.53;0.80;;;11.20;99.90;;;;;;5019560;28;20492;-69
2024/04/01 09:13:19;;;;;;;8.63;1.50;;;11.30;99.90;;;;;;5041642;28;20145;-68
2024/04/01 09:15:48;;;;;;;5.03;1.10;;;11.40;99.90;;;;;;5010014;28;20053;-69
2024/04/01 09:18:15;;;;;;;2.90;0.90;;;11.50;99.90;;;;;;5011222;28;20057;-68
2024/04/01 09:20:41;;;;;;;8.75;1.42;;;11.60;99.90;;;;;;5018340;28;20048;-69
2024/04/01 09:23:07;;;;;;;5.88;0.98;;;11.60;99.90;;;;;;5025158;28;20521;-69
2024/04/01 09:25:33;;;;;;;6.13;1.05;;;11.90;99.90;;;;;;5014787;28;20049;-69
2024/04/01 09:27:58;;;;;;;3.53;0.73;;;12.00;99.90;;;;;;5015318;28;20859;-68
2024/04/01 09:30:24;;;;;;;7.95;2.65;;;12.10;99.90;;;;;;5019547;28;20066;-68
2024/04/01 09:32:50;;;;;;;5.15;1.23;;;12.10;99.90;;;;;;4982201;28;20046;-68
2024/04/01 09:35:16;;;;;;;2.65;0.80;;;12.10;99.90;;;;;;5016660;28;20049;-68
2024/04/01 09:37:42;;;;;;;5.50;0.70;;;12.10;99.90;;;;;;5019615;28;20128;-68
2024/04/01 09:40:09;;;;;;;2.80;0.77;;;12.20;99.90;;;;;;5021709;28;20092;-68
2024/04/01 09:42:35;;;;;;;2.67;0.70;;;12.20;99.90;;;;;;5006834;28;20057;-68
2024/04/01 09:45:04;;;;;;;2.97;0.80;;;12.20;99.90;;;;;;5023736;28;20056;-68
2024/04/01 09:47:31;;;;;;;5.72;1.00;;;12.60;99.90;;;;;;5018294;28;20515;-67
2024/04/01 09:49:57;;;;;;;8.50;0.90;;;13.10;99.90;;;;;;5018984;28;20057;-69
2024/04/01 09:52:23;;;;;;;4.53;0.77;;;13.40;99.90;;;;;;4996682;28;20045;-68
2024/04/01 09:54:49;;;;;;;4.43;0.68;;;13.80;99.90;;;;;;5023233;28;20107;-69
2024/04/01 09:57:28;;;;;;;3.05;0.98;;;14.00;99.90;;;;;;5022278;28;20119;-68
2024/04/01 10:00:06;;;;;;;3.50;0.55;;;14.50;99.90;;;;;;5007055;28;20048;-68
2024/04/01 10:03:26;;;;;;;7.88;1.20;;;14.60;99.90;;;;;;5024221;28;20045;-68
2024/04/01 10:06:00;;;;;;;5.38;0.73;;;14.10;99.90;;;;;;4929288;29;20051;-69
2024/04/01 10:08:54;;;;;;;6.63;0.85;;;13.90;99.90;;;;;;5013600;28;20053;-69
2024/04/01 10:11:38;;;;;;;0.60;0.50;;;13.70;99.90;;;;;;5010363;28;20515;-69
2024/04/01 10:14:09;;;;;;;3.30;0.70;;;13.50;99.90;;;;;;5023084;28;20064;-69
2024/04/01 10:17:06;;;;;;;4.75;0.80;;;13.40;99.90;;;;;;5025205;28;20535;-69
2024/04/01 10:19:44;;;;;;;2.70;0.82;;;13.30;99.90;;;;;;5026734;28;20064;-68
2024/04/01 10:22:53;;;;;;;5.43;0.60;;;13.20;99.90;;;;;;5021599;28;20059;-68
2024/04/01 10:25:57;;;;;;;2.03;0.70;;;13.20;99.90;;;;;;5004605;28;20058;-68
2024/04/01 10:28:57;;;;;;;6.30;1.23;;;13.10;99.90;;;;;;5022401;28;20167;-68
2024/04/01 10:31:45;;;;;;;5.47;0.88;;;13.00;99.90;;;;;;5025679;28;20053;-68
2024/04/01 10:34:13;;;;;;;6.75;1.10;;;13.10;99.90;;;;;;5001947;28;20053;-68
2024/04/01 10:36:57;;;;;;;3.10;0.60;;;13.20;99.90;;;;;;5006883;28;20068;-69
2024/04/01 10:39:48;;;;;;;1.13;0.50;;;13.30;99.90;;;;;;5014766;28;20056;-68
2024/04/01 10:43:00;;;;;;;4.10;1.02;;;13.30;99.90;;;;;;5008277;28;20049;-66
2024/04/01 10:45:57;;;;;;;5.20;0.77;;;13.40;99.90;;;;;;4990600;28;20053;-71
2024/04/01 10:48:27;;;;;;;6.65;0.93;;;13.50;99.90;;;;;;5021511;28;20065;-70
2024/04/01 10:51:08;;;;;;;15.60;1.42;;;13.70;99.90;;;;;;5022667;28;20049;-69
2024/04/01 10:54:00;;;;;;;2.92;0.88;;;13.80;99.90;;;;;;5007783;28;20075;-68
2024/04/01 10:56:56;;;;;;;7.35;0.65;;;13.80;99.90;;;;;;5026317;28;20685;-69
2024/04/01 10:59:46;;;;;;;4.07;0.80;;;14.00;99.90;;;;;;5002298;28;20049;-68
2024/04/01 11:02:24;;;;;;;3.08;0.73;;;14.20;99.90;;;;;;5021910;28;20551;-69
2024/04/01 11:04:59;;;;;;;2.97;1.13;;;14.30;99.90;;;;;;5027090;28;20049;-69
2024/04/01 11:07:44;;;;;;;4.47;0.80;;;14.40;99.90;;;;;;5024832;28;20049;-68
2024/04/01 11:10:37;;;;;;;6.72;1.00;;;14.40;99.90;;;;;;5021489;28;20110;-68
2024/04/01 11:13:15;;;;;;;12.55;1.02;;;14.40;99.90;;;;;;5024749;28;20045;-70
2024/04/01 11:15:41;;;;;;;5.25;0.77;;;14.50;99.90;;;;;;5009587;28;20049;-69
2024/04/01 11:18:22;;;;;;;4.25;1.05;;;14.50;99.90;;;;;;5009065;28;20050;-69
2024/04/01 11:21:04;;;;;;;2.92;0.70;;;14.40;99.90;;;;;;5021417;28;20495;-68
2024/04/01 11:23:35;;;;;;;5.07;0.90;;;14.30;99.90;;;;;;5023658;28;20048;-68
2024/04/01 11:26:16;;;;;;;4.20;1.02;;;14.20;99.90;;;;;;4997781;28;20621;-68
2024/04/01 11:28:47;;;;;;;3.10;0.52;;;14.10;99.90;;;;;;5026325;28;20118;-67
2024/04/01 11:31:23;;;;;;;1.77;0.75;;;14.00;99.90;;;;;;5006328;28;20825;-69
2024/04/01 11:33:57;;;;;;;2.65;0.50;;;13.90;99.90;;;;;;5024578;28;20057;-69
2024/04/01 11:36:28;;;;;;;1.90;0.73;;;13.80;99.90;;;;;;5005964;28;20040;-68
2024/04/01 11:39:04;;;;;;;2.72;0.60;;;13.70;99.90;;;;;;5025090;28;20064;-68
2024/04/01 11:41:34;;;;;;;2.80;0.80;;;13.70;99.90;;;;;;5024140;28;20051;-68
2024/04/01 11:44:00;;;;;;;3.90;0.47;;;13.70;99.90;;;;;;5009147;28;20048;-68
2024/04/01 11:46:26;;;;;;;3.50;0.73;;;13.70;99.90;;;;;;4998380;28;20041;-68
2024/04/01 11:48:55;;;;;;;2.60;0.57;;;13.70;99.90;;;;;;5008582;28;20155;-68
2024/04/01 11:51:34;;;;;;;3.38;0.60;;;13.60;99.90;;;;;;5019921;28;20052;-68
2024/04/01 11:54:00;;;;;;;4.60;0.80;;;13.40;99.90;;;;;;5026091;28;20049;-68
2024/04/01 11:56:36;;;;;;;3.33;0.55;;;13.30;99.90;;;;;;5006682;28;20056;-68
2024/04/01 11:59:02;;;;;;;2.40;0.63;;;13.20;99.90;;;;;;5022830;28;20063;-68
2024/04/01 12:01:34;;;;;;;1.13;0.63;;;13.30;99.90;;;;;;5027377;28;20052;-69
2024/04/01 12:04:02;;;;;;;5.10;0.80;;;13.30;99.90;;;;;;5000341;28;20060;-67
2024/04/01 12:06:31;;;;;;;3.15;1.17;;;13.30;99.90;;;;;;5014733;28;20056;-68
2024/04/01 12:09:02;;;;;;;3.58;1.70;;;13.40;99.90;;;;;;5024622;28;20046;-69
2024/04/01 12:11:28;;;;;;;4.40;1.20;;;13.30;99.90;;;;;;5024852;28;20056;-69
2024/04/01 12:14:05;;;;;;;4.68;1.20;;;13.20;99.90;;;;;;5021888;28;20065;-67
2024/04/01 12:16:34;;;;;;;5.15;0.82;;;13.00;99.90;;;;;;5020681;28;20045;-68
2024/04/01 12:19:01;;;;;;;7.38;1.30;;;13.00;99.90;;;;;;5013403;28;20079;-68
2024/04/01 12:21:29;;;;;;;6.32;0.98;;;13.00;99.90;;;;;;5024601;28;20882;-69
2024/04/01 12:23:55;;;;;;;1.42;0.60;;;12.90;99.90;;;;;;5023863;28;20738;-68
2024/04/01 12:26:21;;;;;;;0.93;0.50;;;12.80;99.90;;;;;;5026677;28;20060;-68
2024/04/01 12:28:46;;;;;;;2.60;0.80;;;12.80;99.90;;;;;;5021459;28;20506;-69
2024/04/01 12:31:14;;;;;;;5.30;0.70;;;12.70;99.90;;;;;;5026045;28;20106;-69
2024/04/01 12:33:44;;;;;;;2.90;0.57;;;12.60;99.90;;;;;;5014025;28;20045;-69
2024/04/01 12:36:12;;;;;;;6.70;0.60;;;12.40;99.90;;;;;;5021445;28;20065;-69
2024/04/01 12:38:42;;;;;;;2.17;0.45;;;12.40;99.90;;;;;;5020137;28;20447;-69
2024/04/01 12:41:08;;;;;;;1.50;0.45;;;12.50;99.90;;;;;;5017809;28;20389;-69
2024/04/01 12:43:35;;;;;;;0.85;0.50;;;12.50;99.90;;;;;;5011450;28;20045;-69
2024/04/01 12:46:00;;;;;;;1.35;0.40;;;12.60;99.90;;;;;;5022964;28;20063;-69
2024/04/01 12:48:27;;;;;;;0.63;0.40;;;12.70;99.90;;;;;;5009784;28;20053;-69
2024/04/01 12:50:54;;;;;;;5.88;0.85;;;12.70;99.90;;;;;;5024179;28;20048;-69
2024/04/01 12:53:25;;;;;;;1.75;0.43;;;12.90;99.90;;;;;;5007540;28;20095;-68
2024/04/01 12:56:20;;;;;;;1.55;0.40;;;13.10;99.90;;;;;;5021953;28;20088;-68
2024/04/01 12:58:52;;;;;;;7.45;0.68;;;13.30;99.90;;;;;;5013230;28;20811;-69